sensor_id;sensor_type;location;lat;lon;timestamp;temperature;humidity
20174;DHT22;10246;50.620;7.232;2022-12-20T00:00:56;8.40;12.00
20174;DHT22;10246;50.620;7.232;2022-12-20T00:03:23;8.30;13.00
20174;DHT22;10246;50.620;7.232;2022-12-20T00:05:50;8.20;12.90
20174;DHT22;10246;50.620;7.232;2022-12-20T00:08:17;8.20;13.20
20174;DHT22;10246;50.620;7.232;2022-12-20T00:10:44;8.30;13.60
20174;DHT22;10246;50.620;7.232;2022-12-20T00:13:12;8.20;13.70
20174;DHT22;10246;50.620;7.232;2022-12-20T00:15:40;8.10;14.20
20174;DHT22;10246;50.620;7.232;2022-12-20T00:18:07;8.10;14.20
20174;DHT22;10246;50.620;7.232;2022-12-20T00:20:33;8.10;14.60
20174;DHT22;10246;50.620;7.232;2022-12-20T00:23:01;8.00;15.00
20174;DHT22;10246;50.620;7.232;2022-12-20T00:25:28;8.10;15.40
20174;DHT22;10246;50.620;7.232;2022-12-20T00:27:55;8.10;15.80
20174;DHT22;10246;50.620;7.232;2022-12-20T00:30:21;8.20;15.30
20174;DHT22;10246;50.620;7.232;2022-12-20T00:32:50;8.10;15.80
20174;DHT22;10246;50.620;7.232;2022-12-20T00:35:16;8.00;16.40
20174;DHT22;10246;50.620;7.232;2022-12-20T00:37:43;8.00;16.70
20174;DHT22;10246;50.620;7.232;2022-12-20T00:40:10;7.90;17.20
20174;DHT22;10246;50.620;7.232;2022-12-20T00:42:37;8.00;17.60
20174;DHT22;10246;50.620;7.232;2022-12-20T00:45:04;8.00;17.60
20174;DHT22;10246;50.620;7.232;2022-12-20T00:47:31;7.90;17.40
20174;DHT22;10246;50.620;7.232;2022-12-20T00:49:59;7.90;17.80
20174;DHT22;10246;50.620;7.232;2022-12-20T00:52:26;7.90;18.10
20174;DHT22;10246;50.620;7.232;2022-12-20T00:54:53;7.80;18.30
20174;DHT22;10246;50.620;7.232;2022-12-20T00:57:20;7.90;19.30
20174;DHT22;10246;50.620;7.232;2022-12-20T00:59:46;7.90;18.50
20174;DHT22;10246;50.620;7.232;2022-12-20T01:02:13;8.10;20.10
20174;DHT22;10246;50.620;7.232;2022-12-20T01:04:40;8.30;20.40
20174;DHT22;10246;50.620;7.232;2022-12-20T01:07:08;8.60;22.00
20174;DHT22;10246;50.620;7.232;2022-12-20T01:09:35;8.80;21.90
20174;DHT22;10246;50.620;7.232;2022-12-20T01:12:02;9.00;21.70
20174;DHT22;10246;50.620;7.232;2022-12-20T01:14:29;9.20;21.20
20174;DHT22;10246;50.620;7.232;2022-12-20T01:16:56;9.50;19.80
20174;DHT22;10246;50.620;7.232;2022-12-20T01:19:22;9.60;15.60
20174;DHT22;10246;50.620;7.232;2022-12-20T01:21:49;9.40;14.40
20174;DHT22;10246;50.620;7.232;2022-12-20T01:24:18;9.30;14.50
20174;DHT22;10246;50.620;7.232;2022-12-20T01:26:46;9.10;14.90
20174;DHT22;10246;50.620;7.232;2022-12-20T01:29:14;9.00;15.20
20174;DHT22;10246;50.620;7.232;2022-12-20T01:31:41;9.00;15.30
20174;DHT22;10246;50.620;7.232;2022-12-20T01:34:08;9.00;16.50
20174;DHT22;10246;50.620;7.232;2022-12-20T01:36:35;9.00;17.90
20174;DHT22;10246;50.620;7.232;2022-12-20T01:39:05;9.10;18.10
20174;DHT22;10246;50.620;7.232;2022-12-20T01:41:34;9.20;18.40
20174;DHT22;10246;50.620;7.232;2022-12-20T01:44:03;9.40;18.90
20174;DHT22;10246;50.620;7.232;2022-12-20T01:46:32;9.60;18.30
20174;DHT22;10246;50.620;7.232;2022-12-20T01:49:03;9.70;17.30
20174;DHT22;10246;50.620;7.232;2022-12-20T01:51:32;9.80;16.00
20174;DHT22;10246;50.620;7.232;2022-12-20T01:54:04;9.80;15.60
20174;DHT22;10246;50.620;7.232;2022-12-20T01:56:34;10.00;15.20
20174;DHT22;10246;50.620;7.232;2022-12-20T01:59:01;10.00;13.50
20174;DHT22;10246;50.620;7.232;2022-12-20T02:01:29;9.80;10.80
20174;DHT22;10246;50.620;7.232;2022-12-20T02:03:55;9.60;10.60
20174;DHT22;10246;50.620;7.232;2022-12-20T02:06:24;9.30;12.60
20174;DHT22;10246;50.620;7.232;2022-12-20T02:08:55;9.20;12.50
20174;DHT22;10246;50.620;7.232;2022-12-20T02:11:33;9.20;16.30
20174;DHT22;10246;50.620;7.232;2022-12-20T02:14:10;9.50;17.30
20174;DHT22;10246;50.620;7.232;2022-12-20T02:16:44;9.60;17.60
20174;DHT22;10246;50.620;7.232;2022-12-20T02:19:30;9.80;16.40
20174;DHT22;10246;50.620;7.232;2022-12-20T02:22:09;9.80;16.00
20174;DHT22;10246;50.620;7.232;2022-12-20T02:25:12;9.80;13.20
20174;DHT22;10246;50.620;7.232;2022-12-20T02:27:48;9.60;12.80
20174;DHT22;10246;50.620;7.232;2022-12-20T02:30:20;9.50;12.70
20174;DHT22;10246;50.620;7.232;2022-12-20T02:32:53;9.50;13.90
20174;DHT22;10246;50.620;7.232;2022-12-20T02:35:23;9.40;14.70
20174;DHT22;10246;50.620;7.232;2022-12-20T02:37:52;9.40;14.90
20174;DHT22;10246;50.620;7.232;2022-12-20T02:40:22;9.30;14.10
20174;DHT22;10246;50.620;7.232;2022-12-20T02:42:52;9.20;15.00
20174;DHT22;10246;50.620;7.232;2022-12-20T02:45:22;9.30;17.00
20174;DHT22;10246;50.620;7.232;2022-12-20T02:47:52;9.50;18.00
20174;DHT22;10246;50.620;7.232;2022-12-20T02:50:23;9.70;18.30
20174;DHT22;10246;50.620;7.232;2022-12-20T02:52:51;9.80;17.10
20174;DHT22;10246;50.620;7.232;2022-12-20T02:55:21;10.00;16.40
20174;DHT22;10246;50.620;7.232;2022-12-20T02:57:53;10.10;14.50
20174;DHT22;10246;50.620;7.232;2022-12-20T03:00:23;10.20;13.70
20174;DHT22;10246;50.620;7.232;2022-12-20T03:02:51;10.20;12.10
20174;DHT22;10246;50.620;7.232;2022-12-20T03:05:43;10.10;10.90
20174;DHT22;10246;50.620;7.232;2022-12-20T03:08:10;9.90;10.70
20174;DHT22;10246;50.620;7.232;2022-12-20T03:10:38;9.70;12.10
20174;DHT22;10246;50.620;7.232;2022-12-20T03:13:04;9.60;12.60
20174;DHT22;10246;50.620;7.232;2022-12-20T03:15:35;9.40;12.70
20174;DHT22;10246;50.620;7.232;2022-12-20T03:18:02;9.30;13.40
20174;DHT22;10246;50.620;7.232;2022-12-20T03:20:29;9.10;13.60
20174;DHT22;10246;50.620;7.232;2022-12-20T03:22:56;9.20;15.00
20174;DHT22;10246;50.620;7.232;2022-12-20T03:25:23;9.10;14.20
20174;DHT22;10246;50.620;7.232;2022-12-20T03:27:50;9.00;15.60
20174;DHT22;10246;50.620;7.232;2022-12-20T03:30:18;9.10;15.70
20174;DHT22;10246;50.620;7.232;2022-12-20T03:32:46;9.10;15.30
20174;DHT22;10246;50.620;7.232;2022-12-20T03:35:13;9.10;16.70
20174;DHT22;10246;50.620;7.232;2022-12-20T03:37:39;9.30;18.60
20174;DHT22;10246;50.620;7.232;2022-12-20T03:40:07;9.60;18.30
20174;DHT22;10246;50.620;7.232;2022-12-20T03:42:34;9.80;18.40
20174;DHT22;10246;50.620;7.232;2022-12-20T03:45:01;10.10;16.10
20174;DHT22;10246;50.620;7.232;2022-12-20T03:47:29;10.30;14.80
20174;DHT22;10246;50.620;7.232;2022-12-20T03:49:57;10.50;12.70
20174;DHT22;10246;50.620;7.232;2022-12-20T03:52:23;10.50;12.60
20174;DHT22;10246;50.620;7.232;2022-12-20T03:54:50;10.60;12.70
20174;DHT22;10246;50.620;7.232;2022-12-20T03:57:17;10.70;12.50
20174;DHT22;10246;50.620;7.232;2022-12-20T03:59:44;10.70;11.80
20174;DHT22;10246;50.620;7.232;2022-12-20T04:02:11;10.80;11.30
20174;DHT22;10246;50.620;7.232;2022-12-20T04:04:37;10.90;11.80
20174;DHT22;10246;50.620;7.232;2022-12-20T04:07:06;10.90;10.40
20174;DHT22;10246;50.620;7.232;2022-12-20T04:09:33;10.90;10.10
20174;DHT22;10246;50.620;7.232;2022-12-20T04:12:00;11.10;10.10
20174;DHT22;10246;50.620;7.232;2022-12-20T04:14:27;11.20;9.10
20174;DHT22;10246;50.620;7.232;2022-12-20T04:16:54;11.20;8.80
20174;DHT22;10246;50.620;7.232;2022-12-20T04:19:20;11.20;8.50
20174;DHT22;10246;50.620;7.232;2022-12-20T04:21:47;11.10;8.60
20174;DHT22;10246;50.620;7.232;2022-12-20T04:24:15;11.20;8.50
20174;DHT22;10246;50.620;7.232;2022-12-20T04:26:42;11.20;8.20
20174;DHT22;10246;50.620;7.232;2022-12-20T04:29:09;11.20;8.00
20174;DHT22;10246;50.620;7.232;2022-12-20T04:31:36;11.20;8.00
20174;DHT22;10246;50.620;7.232;2022-12-20T04:34:02;11.20;8.10
20174;DHT22;10246;50.620;7.232;2022-12-20T04:36:29;11.20;7.70
20174;DHT22;10246;50.620;7.232;2022-12-20T04:38:56;11.20;7.90
20174;DHT22;10246;50.620;7.232;2022-12-20T04:41:24;11.20;7.90
20174;DHT22;10246;50.620;7.232;2022-12-20T04:43:53;11.30;7.60
20174;DHT22;10246;50.620;7.232;2022-12-20T04:46:21;11.20;7.30
20174;DHT22;10246;50.620;7.232;2022-12-20T04:48:48;11.30;7.40
20174;DHT22;10246;50.620;7.232;2022-12-20T04:51:15;11.30;7.60
20174;DHT22;10246;50.620;7.232;2022-12-20T04:53:42;11.30;7.10
20174;DHT22;10246;50.620;7.232;2022-12-20T04:56:18;11.40;7.00
20174;DHT22;10246;50.620;7.232;2022-12-20T04:58:49;11.40;7.00
20174;DHT22;10246;50.620;7.232;2022-12-20T05:01:16;11.40;7.00
20174;DHT22;10246;50.620;7.232;2022-12-20T05:03:44;11.30;6.70
20174;DHT22;10246;50.620;7.232;2022-12-20T05:06:11;11.30;7.20
20174;DHT22;10246;50.620;7.232;2022-12-20T05:08:38;11.30;7.00
20174;DHT22;10246;50.620;7.232;2022-12-20T05:11:05;11.40;6.90
20174;DHT22;10246;50.620;7.232;2022-12-20T05:13:32;11.40;7.00
20174;DHT22;10246;50.620;7.232;2022-12-20T05:16:00;11.40;6.90
20174;DHT22;10246;50.620;7.232;2022-12-20T05:18:27;11.40;6.80
20174;DHT22;10246;50.620;7.232;2022-12-20T05:20:55;11.50;6.50
20174;DHT22;10246;50.620;7.232;2022-12-20T05:23:39;11.50;6.30
20174;DHT22;10246;50.620;7.232;2022-12-20T05:26:24;11.50;6.40
20174;DHT22;10246;50.620;7.232;2022-12-20T05:28:51;11.50;6.50
20174;DHT22;10246;50.620;7.232;2022-12-20T05:31:19;11.40;6.40
20174;DHT22;10246;50.620;7.232;2022-12-20T05:33:46;11.40;6.30
20174;DHT22;10246;50.620;7.232;2022-12-20T05:36:12;11.40;6.20
20174;DHT22;10246;50.620;7.232;2022-12-20T05:38:39;11.40;6.40
20174;DHT22;10246;50.620;7.232;2022-12-20T05:41:06;11.40;6.40
20174;DHT22;10246;50.620;7.232;2022-12-20T05:43:33;11.40;6.60
20174;DHT22;10246;50.620;7.232;2022-12-20T05:46:00;11.40;6.00
20174;DHT22;10246;50.620;7.232;2022-12-20T05:48:28;11.30;6.40
20174;DHT22;10246;50.620;7.232;2022-12-20T05:50:55;11.30;6.80
20174;DHT22;10246;50.620;7.232;2022-12-20T05:53:22;11.20;6.80
20174;DHT22;10246;50.620;7.232;2022-12-20T05:55:50;11.20;6.70
20174;DHT22;10246;50.620;7.232;2022-12-20T05:58:18;11.30;7.00
20174;DHT22;10246;50.620;7.232;2022-12-20T06:00:45;11.30;6.90
20174;DHT22;10246;50.620;7.232;2022-12-20T06:03:13;11.20;7.00
20174;DHT22;10246;50.620;7.232;2022-12-20T06:05:41;11.20;7.30
20174;DHT22;10246;50.620;7.232;2022-12-20T06:08:09;11.10;7.30
20174;DHT22;10246;50.620;7.232;2022-12-20T06:10:38;11.10;6.80
20174;DHT22;10246;50.620;7.232;2022-12-20T06:13:05;11.10;7.20
20174;DHT22;10246;50.620;7.232;2022-12-20T06:15:32;11.10;7.50
20174;DHT22;10246;50.620;7.232;2022-12-20T06:17:59;11.10;7.60
20174;DHT22;10246;50.620;7.232;2022-12-20T06:20:25;11.20;7.50
20174;DHT22;10246;50.620;7.232;2022-12-20T06:22:54;11.20;7.20
20174;DHT22;10246;50.620;7.232;2022-12-20T06:25:21;11.30;7.10
20174;DHT22;10246;50.620;7.232;2022-12-20T06:27:47;11.30;6.80
20174;DHT22;10246;50.620;7.232;2022-12-20T06:30:15;11.30;6.90
20174;DHT22;10246;50.620;7.232;2022-12-20T06:32:42;11.30;6.90
20174;DHT22;10246;50.620;7.232;2022-12-20T06:35:09;11.30;6.40
20174;DHT22;10246;50.620;7.232;2022-12-20T06:37:36;11.40;6.60
20174;DHT22;10246;50.620;7.232;2022-12-20T06:40:08;11.50;6.00
20174;DHT22;10246;50.620;7.232;2022-12-20T06:42:34;11.40;6.80
20174;DHT22;10246;50.620;7.232;2022-12-20T06:45:01;11.50;6.00
20174;DHT22;10246;50.620;7.232;2022-12-20T06:47:28;11.40;6.30
20174;DHT22;10246;50.620;7.232;2022-12-20T06:49:55;11.40;6.30
20174;DHT22;10246;50.620;7.232;2022-12-20T06:52:21;11.50;5.90
20174;DHT22;10246;50.620;7.232;2022-12-20T06:54:48;11.50;5.80
20174;DHT22;10246;50.620;7.232;2022-12-20T06:57:16;11.60;5.40
20174;DHT22;10246;50.620;7.232;2022-12-20T06:59:43;11.50;5.50
20174;DHT22;10246;50.620;7.232;2022-12-20T07:02:10;11.50;5.40
20174;DHT22;10246;50.620;7.232;2022-12-20T07:04:37;11.50;5.20
20174;DHT22;10246;50.620;7.232;2022-12-20T07:07:04;11.60;5.30
20174;DHT22;10246;50.620;7.232;2022-12-20T07:09:31;11.50;5.30
20174;DHT22;10246;50.620;7.232;2022-12-20T07:11:58;11.50;5.30
20174;DHT22;10246;50.620;7.232;2022-12-20T07:14:26;11.50;5.30
20174;DHT22;10246;50.620;7.232;2022-12-20T07:16:53;11.60;5.30
20174;DHT22;10246;50.620;7.232;2022-12-20T07:19:20;11.60;4.60
20174;DHT22;10246;50.620;7.232;2022-12-20T07:21:47;11.70;4.70
20174;DHT22;10246;50.620;7.232;2022-12-20T07:24:14;11.70;4.50
20174;DHT22;10246;50.620;7.232;2022-12-20T07:26:42;11.60;4.50
20174;DHT22;10246;50.620;7.232;2022-12-20T07:29:10;11.60;5.10
20174;DHT22;10246;50.620;7.232;2022-12-20T07:31:39;11.60;4.80
20174;DHT22;10246;50.620;7.232;2022-12-20T07:34:05;11.60;4.80
20174;DHT22;10246;50.620;7.232;2022-12-20T07:36:32;11.60;4.90
20174;DHT22;10246;50.620;7.232;2022-12-20T07:39:00;11.50;4.90
20174;DHT22;10246;50.620;7.232;2022-12-20T07:41:26;11.50;5.10
20174;DHT22;10246;50.620;7.232;2022-12-20T07:43:53;11.50;5.20
20174;DHT22;10246;50.620;7.232;2022-12-20T07:46:22;11.70;4.80
20174;DHT22;10246;50.620;7.232;2022-12-20T07:48:51;11.70;4.60
20174;DHT22;10246;50.620;7.232;2022-12-20T07:51:21;11.70;4.50
20174;DHT22;10246;50.620;7.232;2022-12-20T07:53:51;11.70;4.40
20174;DHT22;10246;50.620;7.232;2022-12-20T07:56:20;11.60;4.60
20174;DHT22;10246;50.620;7.232;2022-12-20T07:58:49;11.60;4.60
20174;DHT22;10246;50.620;7.232;2022-12-20T08:01:17;11.50;5.10
20174;DHT22;10246;50.620;7.232;2022-12-20T08:03:48;11.60;4.60
20174;DHT22;10246;50.620;7.232;2022-12-20T08:06:18;11.60;4.30
20174;DHT22;10246;50.620;7.232;2022-12-20T08:08:48;11.60;4.60
20174;DHT22;10246;50.620;7.232;2022-12-20T08:11:17;11.50;4.80
20174;DHT22;10246;50.620;7.232;2022-12-20T08:13:44;11.60;4.70
20174;DHT22;10246;50.620;7.232;2022-12-20T08:16:11;11.70;4.20
20174;DHT22;10246;50.620;7.232;2022-12-20T08:18:38;11.70;4.00
20174;DHT22;10246;50.620;7.232;2022-12-20T08:21:05;11.70;4.00
20174;DHT22;10246;50.620;7.232;2022-12-20T08:23:33;11.70;4.20
20174;DHT22;10246;50.620;7.232;2022-12-20T08:26:00;11.70;4.00
20174;DHT22;10246;50.620;7.232;2022-12-20T08:28:27;11.70;4.50
20174;DHT22;10246;50.620;7.232;2022-12-20T08:30:59;11.60;4.60
20174;DHT22;10246;50.620;7.232;2022-12-20T08:33:26;11.60;4.60
20174;DHT22;10246;50.620;7.232;2022-12-20T08:35:56;11.60;5.10
20174;DHT22;10246;50.620;7.232;2022-12-20T08:38:25;11.60;4.80
20174;DHT22;10246;50.620;7.232;2022-12-20T08:40:53;11.70;4.60
20174;DHT22;10246;50.620;7.232;2022-12-20T08:43:20;11.80;4.00
20174;DHT22;10246;50.620;7.232;2022-12-20T08:45:52;11.80;4.20
20174;DHT22;10246;50.620;7.232;2022-12-20T08:48:20;11.90;3.90
20174;DHT22;10246;50.620;7.232;2022-12-20T08:50:47;11.80;3.70
20174;DHT22;10246;50.620;7.232;2022-12-20T08:53:19;11.80;3.60
20174;DHT22;10246;50.620;7.232;2022-12-20T08:55:45;11.90;3.70
20174;DHT22;10246;50.620;7.232;2022-12-20T08:58:14;11.90;3.50
20174;DHT22;10246;50.620;7.232;2022-12-20T09:00:41;12.00;3.10
20174;DHT22;10246;50.620;7.232;2022-12-20T09:03:08;12.10;2.70
20174;DHT22;10246;50.620;7.232;2022-12-20T09:05:35;12.00;2.90
20174;DHT22;10246;50.620;7.232;2022-12-20T09:08:02;12.10;2.80
20174;DHT22;10246;50.620;7.232;2022-12-20T09:10:29;12.10;2.40
20174;DHT22;10246;50.620;7.232;2022-12-20T09:12:56;12.10;2.40
20174;DHT22;10246;50.620;7.232;2022-12-20T09:15:24;12.10;2.30
20174;DHT22;10246;50.620;7.232;2022-12-20T09:17:52;12.20;2.30
20174;DHT22;10246;50.620;7.232;2022-12-20T09:20:19;12.20;2.50
20174;DHT22;10246;50.620;7.232;2022-12-20T09:22:46;12.10;2.20
20174;DHT22;10246;50.620;7.232;2022-12-20T09:25:13;12.10;2.00
20174;DHT22;10246;50.620;7.232;2022-12-20T09:27:40;12.20;1.90
20174;DHT22;10246;50.620;7.232;2022-12-20T09:30:08;12.30;1.50
20174;DHT22;10246;50.620;7.232;2022-12-20T09:32:36;12.30;1.40
20174;DHT22;10246;50.620;7.232;2022-12-20T09:35:03;12.40;1.10
20174;DHT22;10246;50.620;7.232;2022-12-20T09:37:31;12.40;1.00
20174;DHT22;10246;50.620;7.232;2022-12-20T09:39:57;12.40;1.00
20174;DHT22;10246;50.620;7.232;2022-12-20T09:42:26;12.50;1.00
20174;DHT22;10246;50.620;7.232;2022-12-20T09:44:56;12.40;1.00
20174;DHT22;10246;50.620;7.232;2022-12-20T09:47:26;12.30;1.00
20174;DHT22;10246;50.620;7.232;2022-12-20T09:49:56;12.30;1.40
20174;DHT22;10246;50.620;7.232;2022-12-20T09:52:29;12.30;1.00
20174;DHT22;10246;50.620;7.232;2022-12-20T09:55:08;12.40;1.00
20174;DHT22;10246;50.620;7.232;2022-12-20T09:57:49;12.40;1.00
20174;DHT22;10246;50.620;7.232;2022-12-20T10:00:19;12.40;1.00
20174;DHT22;10246;50.620;7.232;2022-12-20T10:02:46;12.40;1.00
20174;DHT22;10246;50.620;7.232;2022-12-20T10:05:17;12.40;1.00
20174;DHT22;10246;50.620;7.232;2022-12-20T10:07:52;12.40;1.00
20174;DHT22;10246;50.620;7.232;2022-12-20T10:10:38;12.50;1.00
20174;DHT22;10246;50.620;7.232;2022-12-20T10:13:17;12.50;1.00
20174;DHT22;10246;50.620;7.232;2022-12-20T10:15:51;12.50;1.00
20174;DHT22;10246;50.620;7.232;2022-12-20T10:18:30;12.50;1.00
20174;DHT22;10246;50.620;7.232;2022-12-20T10:21:07;12.50;1.00
20174;DHT22;10246;50.620;7.232;2022-12-20T10:23:39;12.50;1.00
20174;DHT22;10246;50.620;7.232;2022-12-20T10:26:09;12.50;1.00
20174;DHT22;10246;50.620;7.232;2022-12-20T10:28:36;12.40;1.00
20174;DHT22;10246;50.620;7.232;2022-12-20T10:31:06;12.50;1.00
20174;DHT22;10246;50.620;7.232;2022-12-20T10:33:33;12.40;1.00
20174;DHT22;10246;50.620;7.232;2022-12-20T10:36:27;12.40;1.00
20174;DHT22;10246;50.620;7.232;2022-12-20T10:38:55;12.50;1.00
20174;DHT22;10246;50.620;7.232;2022-12-20T10:41:24;12.40;1.00
20174;DHT22;10246;50.620;7.232;2022-12-20T10:43:55;12.40;1.00
20174;DHT22;10246;50.620;7.232;2022-12-20T10:46:23;12.30;1.00
20174;DHT22;10246;50.620;7.232;2022-12-20T10:49:20;12.30;1.00
20174;DHT22;10246;50.620;7.232;2022-12-20T10:51:53;12.30;1.00
20174;DHT22;10246;50.620;7.232;2022-12-20T10:54:22;12.30;1.00
20174;DHT22;10246;50.620;7.232;2022-12-20T10:56:54;12.30;1.00
20174;DHT22;10246;50.620;7.232;2022-12-20T10:59:29;12.30;1.00
20174;DHT22;10246;50.620;7.232;2022-12-20T11:01:57;12.30;1.00
20174;DHT22;10246;50.620;7.232;2022-12-20T11:04:26;12.20;1.00
20174;DHT22;10246;50.620;7.232;2022-12-20T11:06:56;12.20;1.00
20174;DHT22;10246;50.620;7.232;2022-12-20T11:09:28;12.10;1.00
20174;DHT22;10246;50.620;7.232;2022-12-20T11:11:58;12.10;1.20
20174;DHT22;10246;50.620;7.232;2022-12-20T11:14:25;12.00;2.50
20174;DHT22;10246;50.620;7.232;2022-12-20T11:16:52;12.00;1.50
20174;DHT22;10246;50.620;7.232;2022-12-20T11:19:30;12.10;1.20
20174;DHT22;10246;50.620;7.232;2022-12-20T11:22:07;12.10;1.30
20174;DHT22;10246;50.620;7.232;2022-12-20T11:24:41;12.20;1.30
20174;DHT22;10246;50.620;7.232;2022-12-20T11:27:16;12.20;1.10
20174;DHT22;10246;50.620;7.232;2022-12-20T11:30:03;12.20;1.00
20174;DHT22;10246;50.620;7.232;2022-12-20T11:35:46;12.20;1.00
20174;DHT22;10246;50.620;7.232;2022-12-20T11:38:28;12.30;1.00
20174;DHT22;10246;50.620;7.232;2022-12-20T11:41:09;12.30;1.00
20174;DHT22;10246;50.620;7.232;2022-12-20T11:43:50;12.40;1.00
20174;DHT22;10246;50.620;7.232;2022-12-20T11:46:33;12.40;1.00
20174;DHT22;10246;50.620;7.232;2022-12-20T11:49:14;12.50;1.00
20174;DHT22;10246;50.620;7.232;2022-12-20T11:51:46;12.50;1.00
20174;DHT22;10246;50.620;7.232;2022-12-20T11:54:20;12.50;1.00
20174;DHT22;10246;50.620;7.232;2022-12-20T11:56:51;12.50;1.00
20174;DHT22;10246;50.620;7.232;2022-12-20T11:59:25;12.50;1.00
20174;DHT22;10246;50.620;7.232;2022-12-20T12:02:00;12.60;1.00
20174;DHT22;10246;50.620;7.232;2022-12-20T12:04:31;12.60;1.00
20174;DHT22;10246;50.620;7.232;2022-12-20T12:07:03;12.60;1.00
20174;DHT22;10246;50.620;7.232;2022-12-20T12:09:35;12.50;1.00
20174;DHT22;10246;50.620;7.232;2022-12-20T12:12:09;12.60;1.00
20174;DHT22;10246;50.620;7.232;2022-12-20T12:14:45;12.60;1.00
20174;DHT22;10246;50.620;7.232;2022-12-20T12:17:20;12.60;1.00
20174;DHT22;10246;50.620;7.232;2022-12-20T12:19:53;12.70;1.00
20174;DHT22;10246;50.620;7.232;2022-12-20T12:22:26;12.70;1.00
20174;DHT22;10246;50.620;7.232;2022-12-20T12:24:58;12.60;1.00
20174;DHT22;10246;50.620;7.232;2022-12-20T12:27:27;12.70;1.00
20174;DHT22;10246;50.620;7.232;2022-12-20T12:29:55;12.70;1.00
20174;DHT22;10246;50.620;7.232;2022-12-20T12:32:30;12.70;1.00
20174;DHT22;10246;50.620;7.232;2022-12-20T12:35:12;12.80;1.00
20174;DHT22;10246;50.620;7.232;2022-12-20T12:37:52;12.80;1.00
20174;DHT22;10246;50.620;7.232;2022-12-20T12:40:42;12.80;1.00
20174;DHT22;10246;50.620;7.232;2022-12-20T12:43:23;12.70;1.00
20174;DHT22;10246;50.620;7.232;2022-12-20T12:46:00;12.70;1.00
20174;DHT22;10246;50.620;7.232;2022-12-20T12:48:37;12.70;1.00
20174;DHT22;10246;50.620;7.232;2022-12-20T12:51:06;12.70;1.00
20174;DHT22;10246;50.620;7.232;2022-12-20T12:53:36;12.60;1.00
20174;DHT22;10246;50.620;7.232;2022-12-20T12:56:35;12.60;1.00
20174;DHT22;10246;50.620;7.232;2022-12-20T12:59:26;12.60;1.00
20174;DHT22;10246;50.620;7.232;2022-12-20T13:02:26;12.70;1.00
20174;DHT22;10246;50.620;7.232;2022-12-20T13:04:59;12.70;1.00
20174;DHT22;10246;50.620;7.232;2022-12-20T13:07:40;12.80;1.00
20174;DHT22;10246;50.620;7.232;2022-12-20T13:13:21;12.80;1.00
20174;DHT22;10246;50.620;7.232;2022-12-20T13:16:05;12.80;1.00
20174;DHT22;10246;50.620;7.232;2022-12-20T13:18:32;12.90;1.00
20174;DHT22;10246;50.620;7.232;2022-12-20T13:21:29;12.90;1.00
20174;DHT22;10246;50.620;7.232;2022-12-20T13:27:22;12.90;1.00
20174;DHT22;10246;50.620;7.232;2022-12-20T13:29:57;12.90;1.00
20174;DHT22;10246;50.620;7.232;2022-12-20T13:35:31;12.90;1.00
20174;DHT22;10246;50.620;7.232;2022-12-20T13:41:16;13.00;1.00
20174;DHT22;10246;50.620;7.232;2022-12-20T13:43:47;13.00;1.00
20174;DHT22;10246;50.620;7.232;2022-12-20T13:46:22;13.00;1.00
20174;DHT22;10246;50.620;7.232;2022-12-20T13:48:52;13.00;1.00
20174;DHT22;10246;50.620;7.232;2022-12-20T13:51:23;13.00;1.00
20174;DHT22;10246;50.620;7.232;2022-12-20T13:53:54;13.00;1.00
20174;DHT22;10246;50.620;7.232;2022-12-20T13:56:36;13.10;1.00
20174;DHT22;10246;50.620;7.232;2022-12-20T13:59:14;13.10;1.00
20174;DHT22;10246;50.620;7.232;2022-12-20T14:01:48;13.10;1.00
20174;DHT22;10246;50.620;7.232;2022-12-20T14:04:17;13.10;1.00
20174;DHT22;10246;50.620;7.232;2022-12-20T14:06:48;13.10;1.00
20174;DHT22;10246;50.620;7.232;2022-12-20T14:09:30;13.10;1.00
20174;DHT22;10246;50.620;7.232;2022-12-20T14:12:02;13.10;1.00
20174;DHT22;10246;50.620;7.232;2022-12-20T14:14:30;13.00;1.00
20174;DHT22;10246;50.620;7.232;2022-12-20T14:17:22;13.00;1.00
20174;DHT22;10246;50.620;7.232;2022-12-20T14:20:04;13.00;1.00
20174;DHT22;10246;50.620;7.232;2022-12-20T14:22:32;13.00;1.00
20174;DHT22;10246;50.620;7.232;2022-12-20T14:25:01;13.00;1.00
20174;DHT22;10246;50.620;7.232;2022-12-20T14:27:33;13.00;1.00
20174;DHT22;10246;50.620;7.232;2022-12-20T14:30:01;13.00;1.00
20174;DHT22;10246;50.620;7.232;2022-12-20T14:32:30;13.00;1.00
20174;DHT22;10246;50.620;7.232;2022-12-20T14:34:57;13.00;1.00
20174;DHT22;10246;50.620;7.232;2022-12-20T14:37:29;13.10;1.00
20174;DHT22;10246;50.620;7.232;2022-12-20T14:40:01;13.10;1.00
20174;DHT22;10246;50.620;7.232;2022-12-20T14:42:31;13.00;1.00
20174;DHT22;10246;50.620;7.232;2022-12-20T14:45:04;13.00;1.00
20174;DHT22;10246;50.620;7.232;2022-12-20T14:47:32;13.00;1.00
20174;DHT22;10246;50.620;7.232;2022-12-20T14:50:00;13.00;1.00
20174;DHT22;10246;50.620;7.232;2022-12-20T14:52:32;12.90;1.00
20174;DHT22;10246;50.620;7.232;2022-12-20T14:55:03;12.90;1.00
20174;DHT22;10246;50.620;7.232;2022-12-20T14:57:38;13.00;1.00
20174;DHT22;10246;50.620;7.232;2022-12-20T15:00:12;13.00;1.00
20174;DHT22;10246;50.620;7.232;2022-12-20T15:02:45;13.00;1.00
20174;DHT22;10246;50.620;7.232;2022-12-20T15:05:34;13.00;1.00
20174;DHT22;10246;50.620;7.232;2022-12-20T15:08:10;13.00;1.00
20174;DHT22;10246;50.620;7.232;2022-12-20T15:10:37;13.00;1.00
20174;DHT22;10246;50.620;7.232;2022-12-20T15:13:10;12.90;1.00
20174;DHT22;10246;50.620;7.232;2022-12-20T15:15:38;12.90;1.00
20174;DHT22;10246;50.620;7.232;2022-12-20T15:18:10;12.90;1.00
20174;DHT22;10246;50.620;7.232;2022-12-20T15:20:39;12.80;1.00
20174;DHT22;10246;50.620;7.232;2022-12-20T15:23:13;12.80;1.00
20174;DHT22;10246;50.620;7.232;2022-12-20T15:25:40;12.70;1.00
20174;DHT22;10246;50.620;7.232;2022-12-20T15:28:12;12.80;1.00
20174;DHT22;10246;50.620;7.232;2022-12-20T15:30:40;12.80;1.00
20174;DHT22;10246;50.620;7.232;2022-12-20T15:33:16;12.80;1.00
20174;DHT22;10246;50.620;7.232;2022-12-20T15:35:44;12.70;1.00
20174;DHT22;10246;50.620;7.232;2022-12-20T15:38:16;12.70;1.00
20174;DHT22;10246;50.620;7.232;2022-12-20T15:40:45;12.70;1.00
20174;DHT22;10246;50.620;7.232;2022-12-20T15:43:13;12.80;1.00
20174;DHT22;10246;50.620;7.232;2022-12-20T15:45:42;12.70;1.00
20174;DHT22;10246;50.620;7.232;2022-12-20T15:48:15;12.70;1.00
20174;DHT22;10246;50.620;7.232;2022-12-20T15:50:49;12.70;1.00
20174;DHT22;10246;50.620;7.232;2022-12-20T15:53:18;12.80;1.00
20174;DHT22;10246;50.620;7.232;2022-12-20T15:55:49;12.90;1.00
20174;DHT22;10246;50.620;7.232;2022-12-20T15:58:16;12.90;1.00
20174;DHT22;10246;50.620;7.232;2022-12-20T16:00:44;12.70;1.00
20174;DHT22;10246;50.620;7.232;2022-12-20T16:03:16;12.70;1.00
20174;DHT22;10246;50.620;7.232;2022-12-20T16:05:43;12.80;1.00
20174;DHT22;10246;50.620;7.232;2022-12-20T16:08:10;12.80;1.00
20174;DHT22;10246;50.620;7.232;2022-12-20T16:10:36;12.70;1.00
20174;DHT22;10246;50.620;7.232;2022-12-20T16:13:04;12.70;1.00
20174;DHT22;10246;50.620;7.232;2022-12-20T16:15:32;12.70;1.00
20174;DHT22;10246;50.620;7.232;2022-12-20T16:17:59;12.60;1.00
20174;DHT22;10246;50.620;7.232;2022-12-20T16:20:27;12.60;1.00